sensor_id;sensor_type;location;lat;lon;timestamp;P1;P2;P0
74880;PMS5003;63427;49.654;6.596;2023-05-07T00:02:14;10;9;
74880;PMS5003;63427;49.654;6.596;2023-05-07T00:04:39;9;9;
74880;PMS5003;63427;49.654;6.596;2023-05-07T00:07:05;9;9;
74880;PMS5003;63427;49.654;6.596;2023-05-07T00:09:30;9;9;
74880;PMS5003;63427;49.654;6.596;2023-05-07T00:11:55;10;9;
74880;PMS5003;63427;49.654;6.596;2023-05-07T00:14:21;8;8;
74880;PMS5003;63427;49.654;6.596;2023-05-07T00:16:46;7;7;
74880;PMS5003;63427;49.654;6.596;2023-05-07T00:19:12;7;7;
74880;PMS5003;63427;49.654;6.596;2023-05-07T00:21:37;9;9;
74880;PMS5003;63427;49.654;6.596;2023-05-07T00:24:03;9;9;
74880;PMS5003;63427;49.654;6.596;2023-05-07T00:26:28;9;9;
74880;PMS5003;63427;49.654;6.596;2023-05-07T00:28:53;8;8;
74880;PMS5003;63427;49.654;6.596;2023-05-07T00:31:19;9;9;
74880;PMS5003;63427;49.654;6.596;2023-05-07T00:33:44;7;7;
74880;PMS5003;63427;49.654;6.596;2023-05-07T00:36:10;9;9;
74880;PMS5003;63427;49.654;6.596;2023-05-07T00:38:35;10;9;
74880;PMS5003;63427;49.654;6.596;2023-05-07T00:41:01;10;10;
74880;PMS5003;63427;49.654;6.596;2023-05-07T00:43:26;10;10;
74880;PMS5003;63427;49.654;6.596;2023-05-07T00:45:51;6;6;
74880;PMS5003;63427;49.654;6.596;2023-05-07T00:48:17;7;7;
74880;PMS5003;63427;49.654;6.596;2023-05-07T00:50:42;9;9;
74880;PMS5003;63427;49.654;6.596;2023-05-07T00:53:08;9;9;
74880;PMS5003;63427;49.654;6.596;2023-05-07T00:55:33;9;9;
74880;PMS5003;63427;49.654;6.596;2023-05-07T00:57:59;8;8;
74880;PMS5003;63427;49.654;6.596;2023-05-07T01:00:24;9;9;
74880;PMS5003;63427;49.654;6.596;2023-05-07T01:02:50;8;8;
74880;PMS5003;63427;49.654;6.596;2023-05-07T01:05:15;10;10;
74880;PMS5003;63427;49.654;6.596;2023-05-07T01:07:41;8;8;
74880;PMS5003;63427;49.654;6.596;2023-05-07T01:10:06;9;9;
74880;PMS5003;63427;49.654;6.596;2023-05-07T01:12:32;7;7;
74880;PMS5003;63427;49.654;6.596;2023-05-07T01:14:57;11;10;
74880;PMS5003;63427;49.654;6.596;2023-05-07T01:17:23;8;8;
74880;PMS5003;63427;49.654;6.596;2023-05-07T01:19:48;9;9;
74880;PMS5003;63427;49.654;6.596;2023-05-07T01:22:13;7;7;
74880;PMS5003;63427;49.654;6.596;2023-05-07T01:24:39;8;8;
74880;PMS5003;63427;49.654;6.596;2023-05-07T01:27:05;10;10;
74880;PMS5003;63427;49.654;6.596;2023-05-07T01:29:30;10;10;
74880;PMS5003;63427;49.654;6.596;2023-05-07T01:31:56;9;9;
74880;PMS5003;63427;49.654;6.596;2023-05-07T01:34:21;9;9;
74880;PMS5003;63427;49.654;6.596;2023-05-07T01:36:46;10;10;
74880;PMS5003;63427;49.654;6.596;2023-05-07T01:39:12;7;7;
74880;PMS5003;63427;49.654;6.596;2023-05-07T01:41:37;9;9;
74880;PMS5003;63427;49.654;6.596;2023-05-07T01:44:03;9;9;
74880;PMS5003;63427;49.654;6.596;2023-05-07T01:46:28;11;11;
74880;PMS5003;63427;49.654;6.596;2023-05-07T01:48:54;10;10;
74880;PMS5003;63427;49.654;6.596;2023-05-07T03:04:10;10;10;
74880;PMS5003;63427;49.654;6.596;2023-05-07T03:06:30;9;9;
74880;PMS5003;63427;49.654;6.596;2023-05-07T03:08:56;13;12;
74880;PMS5003;63427;49.654;6.596;2023-05-07T03:11:21;10;10;
74880;PMS5003;63427;49.654;6.596;2023-05-07T03:13:47;9;9;
74880;PMS5003;63427;49.654;6.596;2023-05-07T03:16:13;8;8;
74880;PMS5003;63427;49.654;6.596;2023-05-07T03:18:38;10;10;
74880;PMS5003;63427;49.654;6.596;2023-05-07T03:21:04;9;9;
74880;PMS5003;63427;49.654;6.596;2023-05-07T03:23:29;11;11;
74880;PMS5003;63427;49.654;6.596;2023-05-07T03:25:55;11;11;
74880;PMS5003;63427;49.654;6.596;2023-05-07T03:28:20;9;9;
74880;PMS5003;63427;49.654;6.596;2023-05-07T03:30:46;11;11;
74880;PMS5003;63427;49.654;6.596;2023-05-07T03:33:11;10;10;
74880;PMS5003;63427;49.654;6.596;2023-05-07T03:35:37;9;9;
74880;PMS5003;63427;49.654;6.596;2023-05-07T03:38:02;9;9;
74880;PMS5003;63427;49.654;6.596;2023-05-07T03:40:28;11;10;
74880;PMS5003;63427;49.654;6.596;2023-05-07T03:42:53;10;10;
74880;PMS5003;63427;49.654;6.596;2023-05-07T03:45:19;11;10;
74880;PMS5003;63427;49.654;6.596;2023-05-07T03:47:47;11;11;
74880;PMS5003;63427;49.654;6.596;2023-05-07T03:50:10;11;11;
74880;PMS5003;63427;49.654;6.596;2023-05-07T03:52:41;9;9;
74880;PMS5003;63427;49.654;6.596;2023-05-07T03:55:01;10;10;
74880;PMS5003;63427;49.654;6.596;2023-05-07T03:57:27;8;8;
74880;PMS5003;63427;49.654;6.596;2023-05-07T03:59:52;10;10;
74880;PMS5003;63427;49.654;6.596;2023-05-07T04:02:18;12;12;
74880;PMS5003;63427;49.654;6.596;2023-05-07T04:04:44;11;11;
74880;PMS5003;63427;49.654;6.596;2023-05-07T04:07:09;10;10;
74880;PMS5003;63427;49.654;6.596;2023-05-07T04:09:35;12;11;
74880;PMS5003;63427;49.654;6.596;2023-05-07T04:12:01;9;9;
74880;PMS5003;63427;49.654;6.596;2023-05-07T04:14:26;10;10;
74880;PMS5003;63427;49.654;6.596;2023-05-07T04:16:52;10;10;
74880;PMS5003;63427;49.654;6.596;2023-05-07T04:19:17;11;11;
74880;PMS5003;63427;49.654;6.596;2023-05-07T04:21:43;9;9;
74880;PMS5003;63427;49.654;6.596;2023-05-07T04:24:08;10;10;
74880;PMS5003;63427;49.654;6.596;2023-05-07T04:26:34;10;10;
74880;PMS5003;63427;49.654;6.596;2023-05-07T04:28:59;10;10;
74880;PMS5003;63427;49.654;6.596;2023-05-07T04:31:25;11;11;
74880;PMS5003;63427;49.654;6.596;2023-05-07T04:33:51;10;9;
74880;PMS5003;63427;49.654;6.596;2023-05-07T04:36:16;12;11;
74880;PMS5003;63427;49.654;6.596;2023-05-07T04:38:42;9;9;
74880;PMS5003;63427;49.654;6.596;2023-05-07T04:41:08;10;10;
74880;PMS5003;63427;49.654;6.596;2023-05-07T04:43:33;10;10;
74880;PMS5003;63427;49.654;6.596;2023-05-07T04:45:58;12;11;
74880;PMS5003;63427;49.654;6.596;2023-05-07T04:48:24;10;10;
74880;PMS5003;63427;49.654;6.596;2023-05-07T04:50:50;11;11;
74880;PMS5003;63427;49.654;6.596;2023-05-07T04:53:15;11;10;
74880;PMS5003;63427;49.654;6.596;2023-05-07T04:55:40;11;11;
74880;PMS5003;63427;49.654;6.596;2023-05-07T04:58:06;10;10;
74880;PMS5003;63427;49.654;6.596;2023-05-07T05:00:32;13;13;
74880;PMS5003;63427;49.654;6.596;2023-05-07T05:02:57;13;11;
74880;PMS5003;63427;49.654;6.596;2023-05-07T05:05:23;13;13;
74880;PMS5003;63427;49.654;6.596;2023-05-07T05:07:48;12;11;
74880;PMS5003;63427;49.654;6.596;2023-05-07T05:10:13;11;11;
74880;PMS5003;63427;49.654;6.596;2023-05-07T05:12:39;12;12;
74880;PMS5003;63427;49.654;6.596;2023-05-07T05:15:05;10;9;
74880;PMS5003;63427;49.654;6.596;2023-05-07T05:17:30;11;11;
74880;PMS5003;63427;49.654;6.596;2023-05-07T05:19:56;9;9;
74880;PMS5003;63427;49.654;6.596;2023-05-07T05:22:21;10;10;
74880;PMS5003;63427;49.654;6.596;2023-05-07T05:24:46;13;13;
74880;PMS5003;63427;49.654;6.596;2023-05-07T05:27:12;11;11;
74880;PMS5003;63427;49.654;6.596;2023-05-07T05:29:37;11;11;
74880;PMS5003;63427;49.654;6.596;2023-05-07T05:32:03;10;10;
74880;PMS5003;63427;49.654;6.596;2023-05-07T05:34:28;13;13;
74880;PMS5003;63427;49.654;6.596;2023-05-07T05:36:54;10;10;
74880;PMS5003;63427;49.654;6.596;2023-05-07T05:39:20;13;12;
74880;PMS5003;63427;49.654;6.596;2023-05-07T05:41:45;12;12;
74880;PMS5003;63427;49.654;6.596;2023-05-07T05:44:10;14;14;
74880;PMS5003;63427;49.654;6.596;2023-05-07T05:46:36;11;11;
74880;PMS5003;63427;49.654;6.596;2023-05-07T05:49:02;12;11;
74880;PMS5003;63427;49.654;6.596;2023-05-07T05:51:27;12;12;
74880;PMS5003;63427;49.654;6.596;2023-05-07T05:53:52;13;13;
74880;PMS5003;63427;49.654;6.596;2023-05-07T05:56:17;13;13;
74880;PMS5003;63427;49.654;6.596;2023-05-07T05:58:43;12;12;
74880;PMS5003;63427;49.654;6.596;2023-05-07T06:01:08;11;11;
74880;PMS5003;63427;49.654;6.596;2023-05-07T06:03:34;11;11;
74880;PMS5003;63427;49.654;6.596;2023-05-07T06:05:59;15;15;
74880;PMS5003;63427;49.654;6.596;2023-05-07T06:08:24;12;12;
74880;PMS5003;63427;49.654;6.596;2023-05-07T06:11:01;15;14;
74880;PMS5003;63427;49.654;6.596;2023-05-07T06:13:15;16;16;
74880;PMS5003;63427;49.654;6.596;2023-05-07T06:15:41;14;14;
74880;PMS5003;63427;49.654;6.596;2023-05-07T06:18:06;14;14;
74880;PMS5003;63427;49.654;6.596;2023-05-07T06:20:32;12;12;
74880;PMS5003;63427;49.654;6.596;2023-05-07T06:22:57;13;13;
74880;PMS5003;63427;49.654;6.596;2023-05-07T06:25:23;14;14;
74880;PMS5003;63427;49.654;6.596;2023-05-07T06:27:48;13;11;
74880;PMS5003;63427;49.654;6.596;2023-05-07T06:30:13;12;12;
74880;PMS5003;63427;49.654;6.596;2023-05-07T06:32:40;13;13;
74880;PMS5003;63427;49.654;6.596;2023-05-07T06:35:04;12;12;
74880;PMS5003;63427;49.654;6.596;2023-05-07T06:37:29;11;11;
74880;PMS5003;63427;49.654;6.596;2023-05-07T06:39:54;15;15;
74880;PMS5003;63427;49.654;6.596;2023-05-07T06:42:19;13;13;
74880;PMS5003;63427;49.654;6.596;2023-05-07T06:44:45;10;10;
74880;PMS5003;63427;49.654;6.596;2023-05-07T06:47:10;14;14;
74880;PMS5003;63427;49.654;6.596;2023-05-07T06:49:36;14;13;
74880;PMS5003;63427;49.654;6.596;2023-05-07T06:52:01;12;12;
74880;PMS5003;63427;49.654;6.596;2023-05-07T06:54:26;11;11;
74880;PMS5003;63427;49.654;6.596;2023-05-07T06:56:52;12;12;
74880;PMS5003;63427;49.654;6.596;2023-05-07T06:59:17;10;10;
74880;PMS5003;63427;49.654;6.596;2023-05-07T07:01:42;14;14;
74880;PMS5003;63427;49.654;6.596;2023-05-07T07:04:08;12;12;
74880;PMS5003;63427;49.654;6.596;2023-05-07T07:06:33;11;11;
74880;PMS5003;63427;49.654;6.596;2023-05-07T07:08:58;13;13;
74880;PMS5003;63427;49.654;6.596;2023-05-07T07:11:23;10;10;
74880;PMS5003;63427;49.654;6.596;2023-05-07T07:13:48;13;12;
74880;PMS5003;63427;49.654;6.596;2023-05-07T07:16:14;15;15;
74880;PMS5003;63427;49.654;6.596;2023-05-07T07:18:39;13;13;
74880;PMS5003;63427;49.654;6.596;2023-05-07T07:21:04;10;10;
74880;PMS5003;63427;49.654;6.596;2023-05-07T07:23:30;12;12;
74880;PMS5003;63427;49.654;6.596;2023-05-07T07:25:56;12;12;
74880;PMS5003;63427;49.654;6.596;2023-05-07T07:28:21;9;9;
74880;PMS5003;63427;49.654;6.596;2023-05-07T07:30:46;11;11;
74880;PMS5003;63427;49.654;6.596;2023-05-07T07:33:11;13;13;
74880;PMS5003;63427;49.654;6.596;2023-05-07T07:35:37;12;12;
74880;PMS5003;63427;49.654;6.596;2023-05-07T07:38:02;13;12;
74880;PMS5003;63427;49.654;6.596;2023-05-07T07:40:27;12;11;
74880;PMS5003;63427;49.654;6.596;2023-05-07T07:42:53;11;11;
74880;PMS5003;63427;49.654;6.596;2023-05-07T07:45:18;13;12;
74880;PMS5003;63427;49.654;6.596;2023-05-07T07:47:43;10;10;
74880;PMS5003;63427;49.654;6.596;2023-05-07T07:50:09;11;11;
74880;PMS5003;63427;49.654;6.596;2023-05-07T07:52:34;11;11;
74880;PMS5003;63427;49.654;6.596;2023-05-07T07:54:59;11;11;
74880;PMS5003;63427;49.654;6.596;2023-05-07T08:11:55;12;12;
74880;PMS5003;63427;49.654;6.596;2023-05-07T08:14:20;9;9;
74880;PMS5003;63427;49.654;6.596;2023-05-07T08:16:46;10;10;
74880;PMS5003;63427;49.654;6.596;2023-05-07T08:19:11;9;9;
74880;PMS5003;63427;49.654;6.596;2023-05-07T08:21:38;9;9;
74880;PMS5003;63427;49.654;6.596;2023-05-07T08:26:27;9;9;
74880;PMS5003;63427;49.654;6.596;2023-05-07T08:28:52;9;9;
74880;PMS5003;63427;49.654;6.596;2023-05-07T08:31:17;11;11;
74880;PMS5003;63427;49.654;6.596;2023-05-07T08:33:42;10;10;
74880;PMS5003;63427;49.654;6.596;2023-05-07T08:36:07;10;10;
74880;PMS5003;63427;49.654;6.596;2023-05-07T08:38:32;9;9;
74880;PMS5003;63427;49.654;6.596;2023-05-07T08:40:57;9;9;
74880;PMS5003;63427;49.654;6.596;2023-05-07T08:43:22;11;11;
74880;PMS5003;63427;49.654;6.596;2023-05-07T08:45:47;8;8;
74880;PMS5003;63427;49.654;6.596;2023-05-07T08:48:14;8;8;
74880;PMS5003;63427;49.654;6.596;2023-05-07T08:50:37;10;10;
74880;PMS5003;63427;49.654;6.596;2023-05-07T08:53:02;10;10;
74880;PMS5003;63427;49.654;6.596;2023-05-07T08:55:28;8;8;
74880;PMS5003;63427;49.654;6.596;2023-05-07T08:57:52;8;8;
74880;PMS5003;63427;49.654;6.596;2023-05-07T09:00:17;10;9;
74880;PMS5003;63427;49.654;6.596;2023-05-07T09:02:42;9;9;
74880;PMS5003;63427;49.654;6.596;2023-05-07T09:05:07;12;11;
74880;PMS5003;63427;49.654;6.596;2023-05-07T09:07:32;11;11;
74880;PMS5003;63427;49.654;6.596;2023-05-07T09:10:01;8;8;
74880;PMS5003;63427;49.654;6.596;2023-05-07T09:12:24;9;9;
74880;PMS5003;63427;49.654;6.596;2023-05-07T09:14:50;7;7;
74880;PMS5003;63427;49.654;6.596;2023-05-07T09:17:16;7;6;
74880;PMS5003;63427;49.654;6.596;2023-05-07T09:19:42;9;9;
74880;PMS5003;63427;49.654;6.596;2023-05-07T09:22:07;11;11;
74880;PMS5003;63427;49.654;6.596;2023-05-07T09:24:33;9;8;
74880;PMS5003;63427;49.654;6.596;2023-05-07T09:26:59;8;8;
74880;PMS5003;63427;49.654;6.596;2023-05-07T09:29:25;8;8;
74880;PMS5003;63427;49.654;6.596;2023-05-07T09:31:50;12;12;
74880;PMS5003;63427;49.654;6.596;2023-05-07T09:34:15;12;11;
74880;PMS5003;63427;49.654;6.596;2023-05-07T09:36:41;13;13;
74880;PMS5003;63427;49.654;6.596;2023-05-07T09:39:07;7;7;
74880;PMS5003;63427;49.654;6.596;2023-05-07T09:41:33;10;10;
74880;PMS5003;63427;49.654;6.596;2023-05-07T09:43:58;8;8;
74880;PMS5003;63427;49.654;6.596;2023-05-07T09:46:25;8;8;
74880;PMS5003;63427;49.654;6.596;2023-05-07T09:48:50;7;7;
74880;PMS5003;63427;49.654;6.596;2023-05-07T09:51:18;7;6;
74880;PMS5003;63427;49.654;6.596;2023-05-07T09:53:42;6;6;
74880;PMS5003;63427;49.654;6.596;2023-05-07T09:56:08;8;8;
74880;PMS5003;63427;49.654;6.596;2023-05-07T09:58:33;7;6;
74880;PMS5003;63427;49.654;6.596;2023-05-07T10:00:59;6;6;
74880;PMS5003;63427;49.654;6.596;2023-05-07T10:03:25;6;6;
74880;PMS5003;63427;49.654;6.596;2023-05-07T10:05:51;5;5;
74880;PMS5003;63427;49.654;6.596;2023-05-07T10:08:16;7;6;
74880;PMS5003;63427;49.654;6.596;2023-05-07T10:10:42;7;7;
74880;PMS5003;63427;49.654;6.596;2023-05-07T10:13:08;5;5;
74880;PMS5003;63427;49.654;6.596;2023-05-07T10:15:34;5;5;
74880;PMS5003;63427;49.654;6.596;2023-05-07T10:17:59;4;4;
74880;PMS5003;63427;49.654;6.596;2023-05-07T10:20:25;7;7;
74880;PMS5003;63427;49.654;6.596;2023-05-07T10:22:51;10;10;
74880;PMS5003;63427;49.654;6.596;2023-05-07T10:25:17;8;7;
74880;PMS5003;63427;49.654;6.596;2023-05-07T10:27:42;6;6;
74880;PMS5003;63427;49.654;6.596;2023-05-07T10:30:11;7;7;
74880;PMS5003;63427;49.654;6.596;2023-05-07T10:32:37;7;7;
74880;PMS5003;63427;49.654;6.596;2023-05-07T10:35:02;6;6;
74880;PMS5003;63427;49.654;6.596;2023-05-07T10:37:25;7;7;
74880;PMS5003;63427;49.654;6.596;2023-05-07T10:39:51;6;6;
74880;PMS5003;63427;49.654;6.596;2023-05-07T10:42:17;6;6;
74880;PMS5003;63427;49.654;6.596;2023-05-07T10:44:42;7;6;
74880;PMS5003;63427;49.654;6.596;2023-05-07T10:47:09;6;6;
74880;PMS5003;63427;49.654;6.596;2023-05-07T10:49:34;6;6;
74880;PMS5003;63427;49.654;6.596;2023-05-07T10:54:25;7;6;
74880;PMS5003;63427;49.654;6.596;2023-05-07T10:56:51;5;4;
74880;PMS5003;63427;49.654;6.596;2023-05-07T11:01:49;6;6;
74880;PMS5003;63427;49.654;6.596;2023-05-07T11:04:13;6;6;
74880;PMS5003;63427;49.654;6.596;2023-05-07T11:06:34;6;6;
74880;PMS5003;63427;49.654;6.596;2023-05-07T11:09:00;5;5;
74880;PMS5003;63427;49.654;6.596;2023-05-07T11:13:51;5;5;
74880;PMS5003;63427;49.654;6.596;2023-05-07T11:16:17;6;6;
74880;PMS5003;63427;49.654;6.596;2023-05-07T11:18:46;6;6;
74880;PMS5003;63427;49.654;6.596;2023-05-07T11:21:08;7;7;
74880;PMS5003;63427;49.654;6.596;2023-05-07T11:26:00;5;5;
74880;PMS5003;63427;49.654;6.596;2023-05-07T11:28:26;5;5;
74880;PMS5003;63427;49.654;6.596;2023-05-07T11:30:51;5;5;
74880;PMS5003;63427;49.654;6.596;2023-05-07T11:33:17;5;5;
74880;PMS5003;63427;49.654;6.596;2023-05-07T11:35:42;7;7;
74880;PMS5003;63427;49.654;6.596;2023-05-07T11:38:09;8;8;
74880;PMS5003;63427;49.654;6.596;2023-05-07T11:40:34;7;7;
74880;PMS5003;63427;49.654;6.596;2023-05-07T11:43:00;6;6;
74880;PMS5003;63427;49.654;6.596;2023-05-07T11:45:25;6;6;
74880;PMS5003;63427;49.654;6.596;2023-05-07T11:47:51;6;6;
74880;PMS5003;63427;49.654;6.596;2023-05-07T11:50:17;6;6;
74880;PMS5003;63427;49.654;6.596;2023-05-07T11:55:08;5;5;
74880;PMS5003;63427;49.654;6.596;2023-05-07T11:57:34;6;6;
74880;PMS5003;63427;49.654;6.596;2023-05-07T12:00:00;5;5;
74880;PMS5003;63427;49.654;6.596;2023-05-07T12:02:25;6;6;
74880;PMS5003;63427;49.654;6.596;2023-05-07T12:04:51;5;5;
74880;PMS5003;63427;49.654;6.596;2023-05-07T12:07:17;8;8;
74880;PMS5003;63427;49.654;6.596;2023-05-07T12:09:43;5;5;
74880;PMS5003;63427;49.654;6.596;2023-05-07T12:12:08;5;5;
74880;PMS5003;63427;49.654;6.596;2023-05-07T12:14:37;5;5;
74880;PMS5003;63427;49.654;6.596;2023-05-07T12:17:00;5;5;
74880;PMS5003;63427;49.654;6.596;2023-05-07T12:19:25;5;5;
74880;PMS5003;63427;49.654;6.596;2023-05-07T12:21:51;6;6;
74880;PMS5003;63427;49.654;6.596;2023-05-07T12:24:17;5;5;
74880;PMS5003;63427;49.654;6.596;2023-05-07T12:26:43;7;7;
74880;PMS5003;63427;49.654;6.596;2023-05-07T12:29:08;5;5;
74880;PMS5003;63427;49.654;6.596;2023-05-07T12:31:34;5;5;
74880;PMS5003;63427;49.654;6.596;2023-05-07T12:33:59;6;6;
74880;PMS5003;63427;49.654;6.596;2023-05-07T12:36:25;7;7;
74880;PMS5003;63427;49.654;6.596;2023-05-07T12:38:51;7;7;
74880;PMS5003;63427;49.654;6.596;2023-05-07T12:41:16;7;7;
74880;PMS5003;63427;49.654;6.596;2023-05-07T12:43:43;4;4;
74880;PMS5003;63427;49.654;6.596;2023-05-07T12:46:07;7;7;
74880;PMS5003;63427;49.654;6.596;2023-05-07T12:48:33;6;6;
74880;PMS5003;63427;49.654;6.596;2023-05-07T12:50:59;5;5;
74880;PMS5003;63427;49.654;6.596;2023-05-07T12:53:30;7;7;
74880;PMS5003;63427;49.654;6.596;2023-05-07T12:55:51;5;5;
74880;PMS5003;63427;49.654;6.596;2023-05-07T12:58:16;7;7;
74880;PMS5003;63427;49.654;6.596;2023-05-07T13:00:41;7;7;
74880;PMS5003;63427;49.654;6.596;2023-05-07T13:03:07;5;5;
74880;PMS5003;63427;49.654;6.596;2023-05-07T13:05:33;6;6;
74880;PMS5003;63427;49.654;6.596;2023-05-07T13:07:58;6;6;
74880;PMS5003;63427;49.654;6.596;2023-05-07T13:10:24;6;6;
74880;PMS5003;63427;49.654;6.596;2023-05-07T13:12:50;7;7;
74880;PMS5003;63427;49.654;6.596;2023-05-07T13:15:15;7;6;
74880;PMS5003;63427;49.654;6.596;2023-05-07T13:17:41;6;6;
74880;PMS5003;63427;49.654;6.596;2023-05-07T13:20:08;7;7;
74880;PMS5003;63427;49.654;6.596;2023-05-07T13:22:32;6;6;
74880;PMS5003;63427;49.654;6.596;2023-05-07T13:24:59;7;7;
74880;PMS5003;63427;49.654;6.596;2023-05-07T13:27:24;7;7;
74880;PMS5003;63427;49.654;6.596;2023-05-07T13:29:49;7;7;
74880;PMS5003;63427;49.654;6.596;2023-05-07T13:32:15;8;8;
74880;PMS5003;63427;49.654;6.596;2023-05-07T13:34:41;7;7;
74880;PMS5003;63427;49.654;6.596;2023-05-07T13:37:06;7;7;
74880;PMS5003;63427;49.654;6.596;2023-05-07T13:39:32;6;6;
74880;PMS5003;63427;49.654;6.596;2023-05-07T13:41:58;8;7;
74880;PMS5003;63427;49.654;6.596;2023-05-07T13:44:24;8;8;
74880;PMS5003;63427;49.654;6.596;2023-05-07T13:46:49;9;8;
74880;PMS5003;63427;49.654;6.596;2023-05-07T13:49:15;8;8;
74880;PMS5003;63427;49.654;6.596;2023-05-07T13:51:41;7;7;
74880;PMS5003;63427;49.654;6.596;2023-05-07T13:54:07;8;8;
74880;PMS5003;63427;49.654;6.596;2023-05-07T13:56:32;8;8;
74880;PMS5003;63427;49.654;6.596;2023-05-07T13:58:58;6;6;
74880;PMS5003;63427;49.654;6.596;2023-05-07T14:01:24;8;8;
74880;PMS5003;63427;49.654;6.596;2023-05-07T14:03:49;7;7;
74880;PMS5003;63427;49.654;6.596;2023-05-07T14:06:15;8;8;
74880;PMS5003;63427;49.654;6.596;2023-05-07T14:08:41;8;8;
74880;PMS5003;63427;49.654;6.596;2023-05-07T14:11:07;9;9;
74880;PMS5003;63427;49.654;6.596;2023-05-07T14:13:32;6;6;
74880;PMS5003;63427;49.654;6.596;2023-05-07T14:15:58;8;8;
74880;PMS5003;63427;49.654;6.596;2023-05-07T14:18:25;8;8;
74880;PMS5003;63427;49.654;6.596;2023-05-07T14:20:49;7;7;
74880;PMS5003;63427;49.654;6.596;2023-05-07T14:23:15;8;8;
74880;PMS5003;63427;49.654;6.596;2023-05-07T14:25:41;8;7;
74880;PMS5003;63427;49.654;6.596;2023-05-07T14:28:06;8;8;
74880;PMS5003;63427;49.654;6.596;2023-05-07T14:30:32;9;8;
74880;PMS5003;63427;49.654;6.596;2023-05-07T14:32:58;6;6;
74880;PMS5003;63427;49.654;6.596;2023-05-07T14:35:24;5;5;
74880;PMS5003;63427;49.654;6.596;2023-05-07T14:37:49;7;7;
74880;PMS5003;63427;49.654;6.596;2023-05-07T14:40:15;7;7;
74880;PMS5003;63427;49.654;6.596;2023-05-07T14:42:40;7;7;
74880;PMS5003;63427;49.654;6.596;2023-05-07T14:45:07;6;6;
74880;PMS5003;63427;49.654;6.596;2023-05-07T14:47:32;6;6;
74880;PMS5003;63427;49.654;6.596;2023-05-07T14:49:58;7;7;
74880;PMS5003;63427;49.654;6.596;2023-05-07T14:52:23;7;6;
74880;PMS5003;63427;49.654;6.596;2023-05-07T14:54:49;8;8;
74880;PMS5003;63427;49.654;6.596;2023-05-07T14:57:15;7;7;
74880;PMS5003;63427;49.654;6.596;2023-05-07T14:59:40;9;8;
74880;PMS5003;63427;49.654;6.596;2023-05-07T15:02:06;9;8;
74880;PMS5003;63427;49.654;6.596;2023-05-07T15:11:48;7;7;
74880;PMS5003;63427;49.654;6.596;2023-05-07T15:14:14;10;10;
74880;PMS5003;63427;49.654;6.596;2023-05-07T15:16:40;9;9;
74880;PMS5003;63427;49.654;6.596;2023-05-07T15:19:06;8;8;
74880;PMS5003;63427;49.654;6.596;2023-05-07T15:21:31;7;7;
74880;PMS5003;63427;49.654;6.596;2023-05-07T15:23:57;10;10;
74880;PMS5003;63427;49.654;6.596;2023-05-07T15:26:23;10;10;
74880;PMS5003;63427;49.654;6.596;2023-05-07T15:28:49;10;10;
74880;PMS5003;63427;49.654;6.596;2023-05-07T15:31:15;9;9;
74880;PMS5003;63427;49.654;6.596;2023-05-07T15:33:41;10;10;
74880;PMS5003;63427;49.654;6.596;2023-05-07T15:36:06;9;9;
74880;PMS5003;63427;49.654;6.596;2023-05-07T15:38:32;9;9;
74880;PMS5003;63427;49.654;6.596;2023-05-07T15:40:57;9;8;
74880;PMS5003;63427;49.654;6.596;2023-05-07T15:43:23;9;9;
74880;PMS5003;63427;49.654;6.596;2023-05-07T15:45:49;23;22;
74880;PMS5003;63427;49.654;6.596;2023-05-07T15:48:14;30;30;
74880;PMS5003;63427;49.654;6.596;2023-05-07T15:50:39;16;16;
74880;PMS5003;63427;49.654;6.596;2023-05-07T15:53:05;9;8;
74880;PMS5003;63427;49.654;6.596;2023-05-07T15:55:31;9;9;
74880;PMS5003;63427;49.654;6.596;2023-05-07T15:57:56;8;8;
74880;PMS5003;63427;49.654;6.596;2023-05-07T16:00:24;9;9;
74880;PMS5003;63427;49.654;6.596;2023-05-07T16:02:48;10;10;
74880;PMS5003;63427;49.654;6.596;2023-05-07T16:05:14;10;9;
74880;PMS5003;63427;49.654;6.596;2023-05-07T16:07:40;7;7;
74880;PMS5003;63427;49.654;6.596;2023-05-07T16:10:06;9;9;
74880;PMS5003;63427;49.654;6.596;2023-05-07T16:12:31;10;10;
74880;PMS5003;63427;49.654;6.596;2023-05-07T16:14:57;9;9;
74880;PMS5003;63427;49.654;6.596;2023-05-07T16:17:23;11;11;
74880;PMS5003;63427;49.654;6.596;2023-05-07T16:24:40;9;9;
74880;PMS5003;63427;49.654;6.596;2023-05-07T16:27:06;8;8;
74880;PMS5003;63427;49.654;6.596;2023-05-07T16:29:32;9;9;
74880;PMS5003;63427;49.654;6.596;2023-05-07T16:31:58;10;10;
74880;PMS5003;63427;49.654;6.596;2023-05-07T16:34:23;9;9;
74880;PMS5003;63427;49.654;6.596;2023-05-07T16:36:49;11;10;
74880;PMS5003;63427;49.654;6.596;2023-05-07T16:39:15;9;9;
74880;PMS5003;63427;49.654;6.596;2023-05-07T16:41:41;11;11;
74880;PMS5003;63427;49.654;6.596;2023-05-07T16:44:07;10;10;
74880;PMS5003;63427;49.654;6.596;2023-05-07T16:46:33;12;11;
74880;PMS5003;63427;49.654;6.596;2023-05-07T16:48:58;13;12;
74880;PMS5003;63427;49.654;6.596;2023-05-07T16:51:24;9;9;
74880;PMS5003;63427;49.654;6.596;2023-05-07T16:53:50;9;9;
74880;PMS5003;63427;49.654;6.596;2023-05-07T16:56:16;12;11;
74880;PMS5003;63427;49.654;6.596;2023-05-07T16:58:42;12;12;
74880;PMS5003;63427;49.654;6.596;2023-05-07T17:01:08;11;11;
74880;PMS5003;63427;49.654;6.596;2023-05-07T17:03:33;10;10;
74880;PMS5003;63427;49.654;6.596;2023-05-07T17:05:59;9;9;
74880;PMS5003;63427;49.654;6.596;2023-05-07T17:08:25;11;11;
74880;PMS5003;63427;49.654;6.596;2023-05-07T17:10:51;11;11;
74880;PMS5003;63427;49.654;6.596;2023-05-07T17:13:17;10;10;
74880;PMS5003;63427;49.654;6.596;2023-05-07T17:15:42;11;11;
74880;PMS5003;63427;49.654;6.596;2023-05-07T17:18:08;11;10;
74880;PMS5003;63427;49.654;6.596;2023-05-07T17:20:34;11;11;
74880;PMS5003;63427;49.654;6.596;2023-05-07T17:23:00;11;11;
74880;PMS5003;63427;49.654;6.596;2023-05-07T17:25:25;11;11;
74880;PMS5003;63427;49.654;6.596;2023-05-07T17:27:50;11;11;
74880;PMS5003;63427;49.654;6.596;2023-05-07T17:30:15;12;12;
74880;PMS5003;63427;49.654;6.596;2023-05-07T17:32:41;11;11;
74880;PMS5003;63427;49.654;6.596;2023-05-07T17:35:07;9;9;
74880;PMS5003;63427;49.654;6.596;2023-05-07T17:37:32;11;10;
74880;PMS5003;63427;49.654;6.596;2023-05-07T17:39:58;11;10;
74880;PMS5003;63427;49.654;6.596;2023-05-07T17:42:24;9;9;
74880;PMS5003;63427;49.654;6.596;2023-05-07T17:44:49;11;11;
74880;PMS5003;63427;49.654;6.596;2023-05-07T17:47:15;9;9;
74880;PMS5003;63427;49.654;6.596;2023-05-07T17:49:41;12;12;
74880;PMS5003;63427;49.654;6.596;2023-05-07T17:52:07;13;12;
74880;PMS5003;63427;49.654;6.596;2023-05-07T17:54:33;9;9;
74880;PMS5003;63427;49.654;6.596;2023-05-07T17:56:59;10;10;
74880;PMS5003;63427;49.654;6.596;2023-05-07T17:59:24;9;9;
74880;PMS5003;63427;49.654;6.596;2023-05-07T18:01:51;12;12;
74880;PMS5003;63427;49.654;6.596;2023-05-07T18:04:16;10;10;
74880;PMS5003;63427;49.654;6.596;2023-05-07T18:06:42;10;10;
74880;PMS5003;63427;49.654;6.596;2023-05-07T18:09:07;12;12;
74880;PMS5003;63427;49.654;6.596;2023-05-07T18:11:33;11;11;
74880;PMS5003;63427;49.654;6.596;2023-05-07T18:13:58;10;10;
74880;PMS5003;63427;49.654;6.596;2023-05-07T18:16:23;11;11;
74880;PMS5003;63427;49.654;6.596;2023-05-07T18:18:48;10;9;